Time;durP1;ratioP1;P1;durP2;ratioP2;P2;SDS_P1;SDS_P2;PMS_P1;PMS_P2;Temp;Humidity;BMP_temperature;BMP_pressure;BME280_temperature;BME280_humidity;BME280_pressure;Samples;Min_cycle;Max_cycle;Signal;HPM_P1;HPM_P2
2023/04/17 00:01:49;;;;;;;13.80;10.35;;;;;;;12.02;61.10;97696.63;4927687;28;20430;-80
2023/04/17 00:04:14;;;;;;;14.10;10.82;;;;;;;11.92;61.43;97697.25;4933609;28;20164;-80
2023/04/17 00:06:43;;;;;;;19.63;11.98;;;;;;;11.85;61.77;97688.78;4932431;28;20407;-80
2023/04/17 00:09:09;;;;;;;15.60;10.93;;;;;;;11.83;61.81;97698.69;4934185;28;20250;-80
2023/04/17 00:11:35;;;;;;;14.73;9.93;;;;;;;11.82;61.77;97695.25;4938118;28;20469;-79
2023/04/17 00:14:00;;;;;;;14.98;11.00;;;;;;;11.86;61.78;97687.72;4963032;28;20078;-79
2023/04/17 00:16:26;;;;;;;15.02;10.10;;;;;;;11.88;61.74;97690.91;4933030;28;20120;-79
2023/04/17 00:18:54;;;;;;;14.15;10.23;;;;;;;12.00;61.18;97694.25;4934318;28;20425;-79
2023/04/17 00:21:20;;;;;;;15.85;10.63;;;;;;;11.95;61.38;97691.56;4949076;28;20186;-80
2023/04/17 00:23:46;;;;;;;15.45;10.52;;;;;;;11.90;61.80;97692.25;4962024;28;20262;-79
2023/04/17 00:26:11;;;;;;;15.18;10.68;;;;;;;11.91;62.06;97695.66;4961263;28;20375;-79
2023/04/17 00:28:37;;;;;;;13.45;10.52;;;;;;;11.94;61.31;97690.78;4979660;28;20361;-79
2023/04/17 00:31:03;;;;;;;14.02;10.75;;;;;;;11.84;61.64;97692.41;4966983;28;20514;-79
2023/04/17 00:33:30;;;;;;;14.55;10.55;;;;;;;11.87;62.07;97691.94;4961721;28;20168;-79
2023/04/17 00:35:56;;;;;;;14.30;9.73;;;;;;;11.82;61.87;97684.81;4949495;28;20179;-79
2023/04/17 00:38:21;;;;;;;15.45;11.10;;;;;;;11.93;61.59;97685.81;4966776;28;20245;-79
2023/04/17 00:40:47;;;;;;;13.98;10.95;;;;;;;11.95;61.68;97686.34;4948318;28;20551;-81
2023/04/17 00:43:13;;;;;;;17.02;11.07;;;;;;;11.89;62.16;97687.25;4966378;28;20168;-79
2023/04/17 00:45:39;;;;;;;15.73;10.18;;;;;;;11.95;61.51;97675.91;4950897;28;20360;-80
2023/04/17 00:48:06;;;;;;;14.00;9.75;;;;;;;11.93;61.74;97680.59;4948520;28;20278;-79
2023/04/17 00:50:32;;;;;;;17.60;11.90;;;;;;;11.92;61.63;97673.78;4930034;28;20274;-81
2023/04/17 00:52:58;;;;;;;14.80;10.23;;;;;;;11.91;61.68;97670.38;4948510;28;20037;-79
2023/04/17 00:55:28;;;;;;;15.98;10.32;;;;;;;11.80;62.59;97671.22;4951165;28;20176;-81
2023/04/17 00:57:54;;;;;;;15.68;11.73;;;;;;;11.71;62.96;97664.84;4965923;28;20348;-79
2023/04/17 01:00:20;;;;;;;15.02;10.63;;;;;;;11.90;62.18;97666.16;4963412;28;20333;-81
2023/04/17 01:02:48;;;;;;;17.38;10.55;;;;;;;11.85;61.64;97671.31;4963155;28;20199;-79
2023/04/17 01:05:13;;;;;;;16.75;11.77;;;;;;;11.87;61.73;97663.22;4951512;23;20328;-83
2023/04/17 01:07:40;;;;;;;16.42;11.05;;;;;;;11.74;62.55;97664.38;4912447;28;20172;-83
2023/04/17 01:10:06;;;;;;;16.65;11.07;;;;;;;11.77;62.55;97663.88;4978880;28;20199;-83
2023/04/17 01:12:33;;;;;;;15.52;10.95;;;;;;;11.74;62.65;97665.16;4927348;28;20197;-83
2023/04/17 01:14:58;;;;;;;16.58;10.48;;;;;;;11.62;63.25;97661.84;4909909;28;20183;-83
2023/04/17 01:17:26;;;;;;;18.15;12.27;;;;;;;11.63;63.36;97666.03;4940752;28;20632;-83
2023/04/17 01:19:52;;;;;;;15.93;10.77;;;;;;;11.53;63.56;97661.47;4917048;28;20346;-83
2023/04/17 01:22:20;;;;;;;17.80;11.70;;;;;;;11.79;62.35;97664.44;4942697;28;20272;-83
2023/04/17 01:24:47;;;;;;;17.00;12.25;;;;;;;11.80;62.50;97664.19;4928505;28;20195;-85
2023/04/17 01:27:12;;;;;;;19.38;12.40;;;;;;;11.63;63.29;97658.19;4978320;28;20082;-83
2023/04/17 01:29:39;;;;;;;17.60;12.82;;;;;;;11.54;63.80;97662.25;4930647;28;20184;-83
2023/04/17 01:32:04;;;;;;;18.70;11.80;;;;;;;11.65;63.36;97658.75;4928323;28;20645;-83
2023/04/17 01:34:30;;;;;;;18.38;11.63;;;;;;;11.70;63.25;97663.25;4923706;28;20182;-83
2023/04/17 01:36:55;;;;;;;16.55;11.25;;;;;;;11.79;62.99;97667.06;4924927;28;20506;-83
2023/04/17 01:39:20;;;;;;;19.38;12.75;;;;;;;11.76;63.33;97663.09;4945637;28;20746;-83
2023/04/17 01:41:46;;;;;;;20.00;12.27;;;;;;;11.77;63.44;97667.28;4930488;28;20186;-82
2023/04/17 01:44:11;;;;;;;18.17;12.02;;;;;;;11.79;63.60;97670.44;4946473;28;20177;-83
2023/04/17 01:46:37;;;;;;;20.35;13.65;;;;;;;11.51;64.68;97670.53;4933758;28;20335;-83
2023/04/17 01:49:02;;;;;;;19.80;12.27;;;;;;;11.47;65.01;97661.63;4942129;28;20259;-84
2023/04/17 01:51:27;;;;;;;22.17;13.23;;;;;;;11.67;64.18;97669.75;4928310;28;20246;-83
2023/04/17 01:53:53;;;;;;;19.05;12.80;;;;;;;11.78;63.70;97671.47;4929340;28;20658;-84
2023/04/17 01:56:18;;;;;;;18.70;12.82;;;;;;;11.81;63.69;97665.78;4940095;28;20239;-83
2023/04/17 01:58:44;;;;;;;16.85;12.23;;;;;;;11.87;63.61;97655.41;4927955;28;20212;-84
2023/04/17 02:01:09;;;;;;;22.27;13.77;;;;;;;11.67;64.23;97653.28;4941275;28;20195;-83
2023/04/17 02:03:35;;;;;;;18.58;12.98;;;;;;;11.58;64.98;97655.53;4931378;28;20290;-83
2023/04/17 02:06:00;;;;;;;19.52;12.25;;;;;;;11.66;64.59;97662.16;4948155;28;20282;-83
2023/04/17 02:08:26;;;;;;;20.30;13.02;;;;;;;11.53;64.95;97658.88;4967627;28;20625;-83
2023/04/17 02:10:51;;;;;;;19.83;13.30;;;;;;;11.64;65.04;97670.22;4949128;28;20282;-84
2023/04/17 02:13:16;;;;;;;19.58;12.60;;;;;;;11.71;64.70;97659.63;4947141;28;20409;-83
2023/04/17 02:15:42;;;;;;;19.90;12.82;;;;;;;11.75;64.39;97655.50;4961085;28;20632;-83
2023/04/17 02:18:08;;;;;;;19.02;12.43;;;;;;;11.86;64.15;97662.47;4960019;28;20336;-83
2023/04/17 02:20:34;;;;;;;22.50;12.77;;;;;;;11.79;64.23;97662.63;4949441;28;20273;-83
2023/04/17 02:23:00;;;;;;;20.20;12.82;;;;;;;11.77;64.22;97658.66;4953312;28;20862;-83
2023/04/17 02:25:26;;;;;;;18.65;12.88;;;;;;;11.85;63.97;97660.88;4942605;28;20163;-83
2023/04/17 02:27:55;;;;;;;20.30;13.30;;;;;;;11.69;65.23;97669.53;4971052;28;20363;-84
2023/04/17 02:30:25;;;;;;;22.05;12.80;;;;;;;11.72;64.82;97650.75;4946647;28;20243;-83
2023/04/17 02:32:51;;;;;;;20.75;13.15;;;;;;;11.84;64.15;97645.44;4962278;28;20598;-83
2023/04/17 02:35:18;;;;;;;21.52;13.18;;;;;;;11.76;64.67;97660.47;4949561;28;20250;-84
2023/04/17 02:37:44;;;;;;;22.77;14.18;;;;;;;11.68;64.85;97660.88;4950724;28;20870;-83
2023/04/17 02:40:09;;;;;;;20.13;13.43;;;;;;;11.40;66.07;97654.75;4938002;28;20198;-84
2023/04/17 02:42:35;;;;;;;20.30;13.00;;;;;;;11.78;65.09;97661.03;4952067;28;20168;-83
2023/04/17 02:45:01;;;;;;;20.98;13.55;;;;;;;11.90;64.88;97670.59;4970220;28;20510;-83
2023/04/17 02:47:26;;;;;;;19.38;12.77;;;;;;;11.90;64.70;97670.59;4976248;28;20168;-83
2023/04/17 02:49:53;;;;;;;20.05;13.55;;;;;;;12.00;64.84;97670.75;4960296;28;20188;-83
2023/04/17 02:52:19;;;;;;;24.17;15.10;;;;;;;11.70;65.10;97663.25;4935337;28;20211;-83
2023/04/17 02:54:44;;;;;;;22.45;13.98;;;;;;;11.77;65.76;97669.09;4942927;28;20169;-83
2023/04/17 02:57:10;;;;;;;24.13;14.77;;;;;;;11.94;64.73;97669.09;4967786;28;20194;-84
2023/04/17 02:59:35;;;;;;;21.38;13.77;;;;;;;11.74;65.48;97662.53;4966317;28;20195;-83
2023/04/17 03:02:02;;;;;;;22.65;13.90;;;;;;;11.75;66.18;97671.94;4937049;28;20683;-82
2023/04/17 03:04:27;;;;;;;24.33;15.35;;;;;;;11.63;66.35;97660.81;4970432;28;20222;-82
2023/04/17 03:06:53;;;;;;;25.15;16.02;;;;;;;11.38;67.45;97669.84;4952281;28;20175;-83
2023/04/17 03:09:21;;;;;;;22.02;13.85;;;;;;;11.83;65.96;97664.75;4934263;28;20194;-84
2023/04/17 03:11:49;;;;;;;25.17;14.90;;;;;;;11.70;66.22;97655.44;4951074;28;20206;-83
2023/04/17 03:14:15;;;;;;;25.35;15.40;;;;;;;11.52;67.17;97659.09;4958484;28;20259;-82
2023/04/17 03:16:40;;;;;;;24.58;15.48;;;;;;;11.77;66.50;97669.91;4966166;28;20692;-83
2023/04/17 03:19:05;;;;;;;27.15;16.13;;;;;;;11.54;67.04;97659.66;4953511;28;20210;-82
2023/04/17 03:21:31;;;;;;;26.05;16.17;;;;;;;11.59;67.52;97667.53;4945590;28;20556;-83
2023/04/17 03:23:56;;;;;;;27.35;17.10;;;;;;;11.51;68.23;97667.94;4964597;28;20264;-85
2023/04/17 03:26:22;;;;;;;30.05;16.80;;;;;;;11.60;67.75;97669.09;4969609;28;20253;-83
2023/04/17 03:28:47;;;;;;;28.65;17.30;;;;;;;11.52;68.12;97665.09;4945661;28;20173;-83
2023/04/17 03:31:13;;;;;;;30.48;17.73;;;;;;;11.53;68.10;97673.69;4962752;28;20190;-84
2023/04/17 03:33:38;;;;;;;28.05;17.25;;;;;;;11.74;67.53;97674.81;4931916;28;20183;-83
2023/04/17 03:36:04;;;;;;;28.20;17.52;;;;;;;11.80;67.61;97673.84;4969285;28;20130;-83
2023/04/17 03:38:30;;;;;;;32.50;18.88;;;;;;;11.73;67.14;97668.78;4948611;28;20336;-84
2023/04/17 03:40:55;;;;;;;26.55;16.83;;;;;;;11.84;67.01;97674.16;4925453;28;20228;-83
2023/04/17 03:43:21;;;;;;;30.02;17.45;;;;;;;11.74;67.48;97665.16;4942222;28;20227;-83
2023/04/17 03:45:46;;;;;;;25.98;17.20;;;;;;;11.60;68.08;97669.09;4965943;28;20652;-83
2023/04/17 03:48:11;;;;;;;26.83;16.83;;;;;;;11.83;67.23;97669.97;4963618;28;20291;-83
2023/04/17 03:50:37;;;;;;;25.85;17.00;;;;;;;11.79;67.40;97673.06;4948627;28;20194;-82
2023/04/17 03:53:02;;;;;;;27.48;16.58;;;;;;;11.79;67.80;97683.50;4949498;28;20356;-82
2023/04/17 03:55:27;;;;;;;27.70;17.95;;;;;;;11.85;67.48;97681.72;4964416;28;20211;-82
2023/04/17 03:57:53;;;;;;;27.33;17.75;;;;;;;11.78;67.79;97683.72;4947493;28;20273;-81
2023/04/17 04:00:20;;;;;;;25.52;15.45;;;;;;;11.87;67.56;97679.66;4952143;28;20229;-81
2023/04/17 04:02:46;;;;;;;28.77;16.73;;;;;;;11.74;68.00;97678.19;4945460;28;20709;-81
2023/04/17 04:05:11;;;;;;;27.95;17.00;;;;;;;11.93;67.13;97683.97;4931388;28;20273;-82
2023/04/17 04:07:36;;;;;;;26.10;15.88;;;;;;;12.01;66.73;97677.53;4970682;28;20276;-81
2023/04/17 04:10:02;;;;;;;24.33;15.27;;;;;;;11.84;67.31;97677.56;4961786;28;20226;-82
2023/04/17 04:12:27;;;;;;;26.23;15.93;;;;;;;11.78;67.36;97681.13;4964278;28;20660;-82
2023/04/17 04:14:53;;;;;;;25.20;16.10;;;;;;;11.69;68.09;97683.34;4946469;28;20715;-82
2023/04/17 04:17:18;;;;;;;27.15;16.17;;;;;;;11.73;67.76;97681.81;4931310;28;20222;-82
2023/04/17 04:19:44;;;;;;;25.55;16.05;;;;;;;11.75;68.04;97681.59;4929465;28;21075;-81
2023/04/17 04:22:12;;;;;;;28.33;17.15;;;;;;;11.81;67.68;97688.47;4938381;28;20160;-82
2023/04/17 04:24:39;;;;;;;27.70;16.98;;;;;;;11.60;68.34;97693.38;4951892;28;20771;-81
2023/04/17 04:27:05;;;;;;;27.52;15.93;;;;;;;11.62;67.91;97686.13;4947152;28;20205;-82
2023/04/17 04:29:31;;;;;;;29.80;17.88;;;;;;;11.67;67.99;97684.59;4928887;28;20199;-82
2023/04/17 04:31:56;;;;;;;29.35;17.77;;;;;;;11.61;68.71;97691.56;4943418;28;20168;-81
2023/04/17 04:34:24;;;;;;;31.02;18.13;;;;;;;11.70;68.32;97692.72;4946544;28;20207;-81
2023/04/17 04:36:53;;;;;;;29.10;18.55;;;;;;;11.88;67.81;97691.69;4948168;28;20633;-82
2023/04/17 04:39:19;;;;;;;28.13;17.25;;;;;;;11.81;67.84;97691.09;4947301;28;20690;-82
2023/04/17 04:41:45;;;;;;;28.88;16.92;;;;;;;11.83;67.73;97696.06;4942403;28;20155;-81
2023/04/17 04:44:10;;;;;;;27.73;15.82;;;;;;;11.89;67.56;97692.47;4979962;28;20274;-82
2023/04/17 04:46:35;;;;;;;26.52;15.77;;;;;;;11.92;67.21;97690.22;4963550;28;20259;-81
2023/04/17 04:49:01;;;;;;;26.83;16.98;;;;;;;11.92;67.32;97694.66;4928037;28;20217;-82
2023/04/17 04:51:26;;;;;;;27.92;17.38;;;;;;;12.01;67.17;97698.41;4961395;28;20289;-81
2023/04/17 04:53:52;;;;;;;26.20;16.35;;;;;;;11.96;67.38;97698.34;4976295;28;20143;-82
2023/04/17 04:56:17;;;;;;;26.05;15.98;;;;;;;12.01;67.47;97700.25;4957023;28;20624;-82
2023/04/17 04:58:43;;;;;;;26.17;15.88;;;;;;;12.03;66.91;97685.13;4930625;28;20648;-82
2023/04/17 05:01:08;;;;;;;27.20;15.85;;;;;;;12.03;66.85;97698.19;4927743;28;20260;-82
2023/04/17 05:03:33;;;;;;;24.45;15.68;;;;;;;12.01;67.01;97703.63;4943639;28;20279;-82
2023/04/17 05:05:59;;;;;;;24.73;16.20;;;;;;;11.96;67.47;97703.56;4929050;28;20353;-81
2023/04/17 05:08:24;;;;;;;26.55;17.08;;;;;;;11.99;66.85;97703.91;4962849;28;20201;-81
2023/04/17 05:10:50;;;;;;;27.27;16.52;;;;;;;12.01;67.29;97701.03;4928218;28;20205;-81
2023/04/17 05:13:15;;;;;;;25.13;15.85;;;;;;;11.97;66.99;97705.16;4945401;28;20316;-81
2023/04/17 05:15:40;;;;;;;29.05;17.35;;;;;;;11.86;67.30;97706.81;4946489;28;20211;-82
2023/04/17 05:18:06;;;;;;;28.35;16.50;;;;;;;11.84;67.42;97708.88;4925170;28;20214;-81
2023/04/17 05:20:31;;;;;;;29.75;16.88;;;;;;;11.93;67.01;97704.06;4943311;28;20192;-82
2023/04/17 05:22:57;;;;;;;26.02;16.83;;;;;;;11.97;67.18;97705.94;4956188;28;20202;-82
2023/04/17 05:25:23;;;;;;;33.45;19.98;;;;;;;11.94;67.33;97708.25;4929416;28;20281;-81
2023/04/17 05:27:48;;;;;;;29.27;19.48;;;;;;;11.98;67.41;97712.75;4937965;28;20211;-82
2023/04/17 05:30:14;;;;;;;29.23;18.30;;;;;;;11.87;67.77;97713.59;4962012;28;20271;-82
2023/04/17 05:32:39;;;;;;;31.08;19.42;;;;;;;11.83;67.32;97707.28;4949068;28;20319;-81
2023/04/17 05:35:05;;;;;;;31.58;19.33;;;;;;;11.81;68.02;97717.94;4928220;28;20517;-81
2023/04/17 05:37:30;;;;;;;30.40;19.27;;;;;;;11.78;68.14;97710.59;4928037;28;20207;-81
2023/04/17 05:39:58;;;;;;;28.90;17.00;;;;;;;11.89;67.45;97710.75;4982115;28;20256;-81
2023/04/17 05:42:24;;;;;;;157.32;91.82;;;;;;;11.86;68.16;97719.03;4950487;28;20213;-81
2023/04/17 05:44:49;;;;;;;53.40;33.28;;;;;;;11.79;68.47;97709.59;4951135;28;20231;-81
2023/04/17 05:47:14;;;;;;;62.85;42.00;;;;;;;11.92;68.08;97720.75;4952121;28;20337;-81
2023/04/17 05:49:41;;;;;;;47.65;31.92;;;;;;;11.86;68.12;97713.81;4970297;28;20188;-81
2023/04/17 05:52:06;;;;;;;45.58;30.17;;;;;;;11.83;68.48;97709.88;4935517;28;20738;-81
2023/04/17 05:54:32;;;;;;;40.75;29.58;;;;;;;11.89;68.36;97713.34;4968524;28;20242;-82
2023/04/17 05:56:57;;;;;;;35.67;24.08;;;;;;;11.95;67.86;97717.66;4932579;28;20244;-81
2023/04/17 05:59:22;;;;;;;31.88;20.25;;;;;;;12.00;67.86;97720.34;4967547;28;20082;-82
2023/04/17 06:01:48;;;;;;;33.92;21.50;;;;;;;12.05;67.96;97715.19;4951480;28;20176;-82
2023/04/17 06:04:13;;;;;;;30.10;19.38;;;;;;;12.07;68.02;97713.13;4934316;28;20718;-81
2023/04/17 06:06:39;;;;;;;34.90;22.20;;;;;;;12.10;67.75;97715.25;4934924;28;20745;-81
2023/04/17 06:09:06;;;;;;;31.50;19.50;;;;;;;11.99;68.39;97713.53;4933940;28;20206;-81
2023/04/17 06:11:31;;;;;;;33.42;19.85;;;;;;;12.07;68.33;97720.97;4950468;28;20160;-83
2023/04/17 06:13:56;;;;;;;35.35;20.70;;;;;;;12.19;68.64;97718.25;4934087;28;20203;-81
2023/04/17 06:16:22;;;;;;;35.13;21.30;;;;;;;12.30;67.70;97713.94;4930759;28;20211;-82
2023/04/17 06:18:47;;;;;;;34.03;20.92;;;;;;;12.33;67.82;97716.06;4935112;28;20262;-82
2023/04/17 06:21:12;;;;;;;33.28;21.35;;;;;;;12.30;68.01;97729.59;4945195;28;20676;-82
2023/04/17 06:23:38;;;;;;;31.48;19.00;;;;;;;12.31;68.08;97720.75;4927499;28;20357;-81
2023/04/17 06:26:03;;;;;;;31.73;19.58;;;;;;;12.25;68.30;97726.94;4930663;28;20353;-81
2023/04/17 06:28:29;;;;;;;36.67;19.70;;;;;;;12.31;68.23;97731.19;4930999;28;20480;-82
2023/04/17 06:30:55;;;;;;;33.47;19.60;;;;;;;12.13;68.55;97735.66;4948824;28;20295;-82
2023/04/17 06:33:20;;;;;;;29.10;19.10;;;;;;;12.23;68.09;97732.38;4949727;28;20304;-82
2023/04/17 06:35:45;;;;;;;32.72;19.90;;;;;;;12.08;68.05;97733.00;4948562;28;20597;-81
2023/04/17 06:38:11;;;;;;;35.67;20.52;;;;;;;12.07;68.61;97733.22;4953881;28;20201;-82
2023/04/17 06:40:37;;;;;;;33.63;21.83;;;;;;;12.20;68.40;97721.63;4950406;28;20258;-84
2023/04/17 06:43:02;;;;;;;34.67;19.63;;;;;;;11.99;68.66;97718.75;4950896;28;20273;-82
2023/04/17 06:45:27;;;;;;;33.80;19.98;;;;;;;12.06;68.76;97731.63;4949213;28;20541;-82
2023/04/17 06:47:53;;;;;;;37.55;21.85;;;;;;;12.04;68.71;97720.66;4966775;28;20261;-82
2023/04/17 06:50:19;;;;;;;33.30;19.95;;;;;;;12.32;68.14;97732.75;4950747;28;20400;-83
2023/04/17 06:52:44;;;;;;;33.67;19.75;;;;;;;12.22;68.29;97732.63;4949963;28;20573;-82
2023/04/17 06:55:10;;;;;;;28.20;18.23;;;;;;;12.39;67.59;97728.19;4924037;28;20238;-81
2023/04/17 06:57:35;;;;;;;34.00;19.67;;;;;;;12.27;67.58;97740.53;4948151;28;20253;-83
2023/04/17 07:00:01;;;;;;;34.03;18.75;;;;;;;12.21;67.73;97739.69;4948179;28;20687;-82
2023/04/17 07:02:26;;;;;;;33.55;20.02;;;;;;;12.22;67.93;97745.69;4929649;28;20192;-82
2023/04/17 07:04:53;;;;;;;39.72;21.73;;;;;;;12.18;67.82;97746.19;4941063;28;20160;-82
2023/04/17 07:07:19;;;;;;;30.10;17.23;;;;;;;12.33;67.40;97750.81;4932968;28;20701;-82
2023/04/17 07:09:46;;;;;;;30.85;20.42;;;;;;;12.19;68.07;97749.56;4931789;28;20168;-82
2023/04/17 07:12:12;;;;;;;31.42;18.45;;;;;;;12.19;67.91;97752.19;4961660;28;20172;-81
2023/04/17 07:14:39;;;;;;;28.00;18.23;;;;;;;11.93;68.46;97751.81;4949705;28;20196;-82
2023/04/17 07:17:05;;;;;;;28.30;18.33;;;;;;;12.15;67.44;97746.66;4950577;28;20283;-81
2023/04/17 07:19:32;;;;;;;30.95;19.45;;;;;;;12.07;67.76;97754.88;4972849;28;20207;-82
2023/04/17 07:21:57;;;;;;;28.92;19.35;;;;;;;12.32;67.96;97759.69;4955606;28;21263;-83
2023/04/17 07:24:22;;;;;;;32.50;19.25;;;;;;;12.15;68.12;97749.28;4969474;28;20250;-82
2023/04/17 07:26:48;;;;;;;30.00;19.92;;;;;;;12.49;66.95;97759.66;4931217;28;20203;-83
2023/04/17 07:29:14;;;;;;;30.70;18.67;;;;;;;12.58;66.83;97753.97;4963765;28;20241;-82
2023/04/17 07:31:39;;;;;;;29.20;17.80;;;;;;;12.64;66.12;97755.63;4933257;28;20282;-83
2023/04/17 07:34:04;;;;;;;29.63;17.98;;;;;;;12.70;66.58;97762.50;4948066;28;20171;-82
2023/04/17 07:36:30;;;;;;;29.98;17.98;;;;;;;12.40;66.83;97755.84;4954613;28;20777;-82
2023/04/17 07:38:55;;;;;;;26.85;16.77;;;;;;;12.50;66.53;97765.66;4964056;28;20219;-83
2023/04/17 07:41:20;;;;;;;29.35;17.42;;;;;;;12.53;65.92;97771.19;4940377;28;20178;-83
2023/04/17 07:43:46;;;;;;;28.80;18.00;;;;;;;12.49;66.40;97770.09;4933967;28;20238;-82
2023/04/17 07:46:11;;;;;;;30.25;17.58;;;;;;;12.61;65.94;97762.16;4966186;28;20250;-81
2023/04/17 07:48:38;;;;;;;30.80;19.20;;;;;;;12.72;65.86;97773.50;4965607;28;20172;-82
2023/04/17 07:51:04;;;;;;;27.02;17.33;;;;;;;12.62;65.37;97765.53;4950958;28;20088;-84
2023/04/17 07:53:30;;;;;;;26.88;16.98;;;;;;;12.60;65.33;97768.41;4934528;28;20246;-82
2023/04/17 07:55:57;;;;;;;26.70;17.40;;;;;;;12.66;65.13;97780.50;4968601;28;20191;-83
2023/04/17 07:58:22;;;;;;;26.55;15.82;;;;;;;12.58;66.04;97775.69;4951903;28;20210;-80
2023/04/17 08:00:49;;;;;;;28.65;17.80;;;;;;;12.51;66.03;97777.69;4935306;28;20118;-82
2023/04/17 08:03:15;;;;;;;25.98;16.48;;;;;;;12.65;65.64;97775.50;4938943;28;20187;-82
2023/04/17 08:05:40;;;;;;;25.77;17.52;;;;;;;12.49;65.92;97784.97;4950532;28;20575;-81
2023/04/17 08:08:06;;;;;;;24.90;16.70;;;;;;;12.64;66.17;97786.97;4935364;28;20189;-83
2023/04/17 08:10:31;;;;;;;26.55;16.42;;;;;;;12.78;65.84;97788.19;4933104;28;20235;-83
2023/04/17 08:12:57;;;;;;;28.15;16.65;;;;;;;12.86;65.41;97769.47;4948853;28;20668;-83
2023/04/17 08:15:22;;;;;;;28.88;16.67;;;;;;;13.22;64.72;97784.78;4965718;28;20348;-82
2023/04/17 08:17:48;;;;;;;24.90;16.52;;;;;;;13.17;63.87;97782.88;4949008;28;20183;-82
2023/04/17 08:20:16;;;;;;;23.70;16.17;;;;;;;13.22;64.92;97788.16;4956518;28;20264;-83
2023/04/17 08:22:43;;;;;;;24.00;15.63;;;;;;;13.40;64.62;97778.44;4951178;28;20197;-81
2023/04/17 08:25:09;;;;;;;24.40;15.60;;;;;;;13.60;64.01;97783.84;4932532;28;20194;-82
2023/04/17 08:27:35;;;;;;;22.45;15.80;;;;;;;13.82;62.72;97780.38;4967163;28;20657;-82
2023/04/17 08:30:05;;;;;;;22.95;15.30;;;;;;;13.48;63.21;97770.13;4965628;28;20644;-82
2023/04/17 08:32:38;;;;;;;25.80;15.10;;;;;;;13.74;62.52;97778.19;4951138;28;20203;-82
2023/04/17 08:35:05;;;;;;;22.75;15.73;;;;;;;13.66;63.16;97779.47;4969821;28;20265;-81
2023/04/17 08:37:31;;;;;;;17.88;12.40;;;;;;;13.58;61.28;97779.91;4966600;28;20211;-83
2023/04/17 08:39:57;;;;;;;18.42;13.27;;;;;;;14.34;61.11;97774.44;4965180;28;20672;-82
2023/04/17 08:42:22;;;;;;;17.75;12.73;;;;;;;14.70;59.51;97776.47;4948306;28;20180;-83
2023/04/17 08:44:48;;;;;;;16.75;12.00;;;;;;;14.67;58.40;97779.59;4929312;28;20240;-82
2023/04/17 08:47:17;;;;;;;15.68;10.48;;;;;;;15.05;57.26;97775.81;4931122;28;20215;-81
2023/04/17 08:49:44;;;;;;;14.40;10.85;;;;;;;15.53;56.49;97773.00;4944579;28;20606;-81
2023/04/17 08:52:10;;;;;;;13.65;10.05;;;;;;;15.61;54.43;97767.25;4946780;28;20153;-82
2023/04/17 08:54:37;;;;;;;12.48;9.32;;;;;;;15.46;54.74;97775.88;4929382;28;20269;-83
2023/04/17 08:57:05;;;;;;;12.85;9.52;;;;;;;15.48;54.94;97778.25;4963278;28;20199;-81
2023/04/17 08:59:31;;;;;;;12.43;9.77;;;;;;;15.56;54.47;97783.00;4930560;28;20277;-82
2023/04/17 09:02:00;;;;;;;10.68;8.00;;;;;;;15.10;54.58;97778.44;4930025;28;20291;-81
2023/04/17 09:04:40;;;;;;;10.18;7.75;;;;;;;15.20;54.42;97777.69;4974502;28;20210;-82
2023/04/17 09:07:07;;;;;;;10.10;7.63;;;;;;;14.85;55.54;97775.75;4964326;28;20715;-83
2023/04/17 09:09:46;;;;;;;9.90;7.55;;;;;;;14.68;54.96;97778.56;4965899;28;20694;-82
2023/04/17 09:12:12;;;;;;;10.18;8.13;;;;;;;14.63;55.61;97786.41;4951480;28;20657;-83
2023/04/17 09:14:37;;;;;;;9.80;7.50;;;;;;;14.00;55.81;97785.22;4928119;28;20207;-82
2023/04/17 09:17:02;;;;;;;9.75;7.32;;;;;;;13.77;57.51;97788.97;4938512;28;20292;-83
2023/04/17 09:19:28;;;;;;;8.98;6.57;;;;;;;14.13;57.20;97789.22;4945961;28;20289;-82
2023/04/17 09:21:53;;;;;;;9.15;6.80;;;;;;;14.17;56.64;97786.88;4930508;28;20283;-84
2023/04/17 09:24:33;;;;;;;10.18;6.68;;;;;;;14.18;55.65;97791.88;4965944;28;20284;-80
2023/04/17 09:27:22;;;;;;;7.97;5.65;;;;;;;14.35;55.50;97788.31;4935468;28;20189;-82
2023/04/17 09:30:04;;;;;;;8.57;6.22;;;;;;;14.37;55.82;97797.50;4945468;28;20611;-81
2023/04/17 09:32:31;;;;;;;8.63;6.60;;;;;;;14.30;56.49;97796.16;4937775;28;20165;-82
2023/04/17 09:34:59;;;;;;;9.57;6.82;;;;;;;14.61;56.25;97791.88;4960613;28;20611;-83
2023/04/17 09:37:26;;;;;;;9.50;6.53;;;;;;;14.61;55.91;97802.38;4935926;28;20316;-83
2023/04/17 09:39:56;;;;;;;7.32;6.07;;;;;;;14.28;55.00;97795.63;4934025;28;20226;-84
2023/04/17 09:42:22;;;;;;;7.38;5.65;;;;;;;14.21;56.05;97801.84;4966953;28;20190;-82
2023/04/17 09:44:48;;;;;;;8.85;6.60;;;;;;;13.93;55.91;97805.59;4930800;28;20364;-81
2023/04/17 09:47:14;;;;;;;7.55;5.45;;;;;;;13.90;54.40;97798.25;4973346;28;20245;-81
2023/04/17 09:49:41;;;;;;;6.95;5.10;;;;;;;13.70;54.48;97803.31;4938864;28;20280;-81
2023/04/17 09:52:07;;;;;;;7.82;5.22;;;;;;;13.92;55.08;97806.63;4947581;28;20271;-81
2023/04/17 09:54:36;;;;;;;6.70;5.68;;;;;;;14.31;54.10;97798.53;4966390;28;20264;-82
2023/04/17 09:57:03;;;;;;;7.85;5.70;;;;;;;14.54;53.26;97797.31;4937564;28;20235;-82
2023/04/17 09:59:30;;;;;;;6.97;5.40;;;;;;;14.69;53.09;97803.72;4950077;28;20187;-83
2023/04/17 10:01:56;;;;;;;6.20;5.22;;;;;;;14.65;53.05;97800.03;4935609;28;20235;-83
2023/04/17 10:04:21;;;;;;;6.35;5.05;;;;;;;14.85;52.89;97805.34;4952490;28;20819;-82
2023/04/17 10:06:48;;;;;;;6.70;4.78;;;;;;;14.89;53.09;97803.00;4968037;28;20203;-83
2023/04/17 10:09:13;;;;;;;7.53;5.50;;;;;;;14.32;52.80;97794.84;4964538;28;20681;-82
2023/04/17 10:11:42;;;;;;;6.60;5.32;;;;;;;14.52;53.95;97798.63;4929853;28;20192;-82
2023/04/17 10:14:10;;;;;;;6.95;5.63;;;;;;;14.49;53.31;97802.53;4933184;28;20240;-82
2023/04/17 10:16:42;;;;;;;8.20;5.25;;;;;;;14.35;54.17;97798.81;4950373;28;20678;-82
2023/04/17 10:19:26;;;;;;;7.35;5.57;;;;;;;14.60;52.82;97803.44;4966621;28;20703;-85
2023/04/17 10:22:18;;;;;;;7.57;5.85;;;;;;;14.35;53.27;97796.97;4973727;28;20177;-83
2023/04/17 10:24:46;;;;;;;6.25;4.93;;;;;;;14.21;53.66;97795.84;4945269;28;20216;-82
2023/04/17 10:27:23;;;;;;;8.25;6.38;;;;;;;14.43;52.78;97796.50;4937055;28;20739;-81
2023/04/17 10:29:59;;;;;;;6.90;5.30;;;;;;;14.40;51.72;97796.22;4955446;28;20282;-84
2023/04/17 10:32:28;;;;;;;7.60;5.90;;;;;;;14.29;51.86;97790.13;4955711;28;20202;-81
2023/04/17 10:34:56;;;;;;;8.50;6.40;;;;;;;14.40;52.24;97791.75;4938123;28;20231;-84
2023/04/17 10:37:50;;;;;;;7.55;6.18;;;;;;;14.53;52.42;97787.09;4945182;28;20320;-82
2023/04/17 10:40:26;;;;;;;8.32;5.63;;;;;;;14.53;52.30;97787.09;4954380;28;20211;-83
2023/04/17 10:43:21;;;;;;;9.25;6.80;;;;;;;14.37;51.89;97791.47;4976781;28;20280;-82
2023/04/17 10:46:08;;;;;;;7.43;5.60;;;;;;;13.67;53.29;97787.06;4964485;28;20639;-85
2023/04/17 10:48:35;;;;;;;9.02;5.82;;;;;;;13.99;53.22;97783.63;4965146;28;20328;-84
2023/04/17 10:51:22;;;;;;;8.07;6.90;;;;;;;14.37;52.74;97784.38;4933753;28;20192;-82
2023/04/17 10:53:51;;;;;;;7.82;6.32;;;;;;;14.21;53.15;97786.13;4967487;28;20187;-83
2023/04/17 10:56:36;;;;;;;8.10;6.50;;;;;;;14.45;53.36;97782.34;4969682;28;20194;-83
2023/04/17 10:59:03;;;;;;;8.98;6.85;;;;;;;14.27;53.79;97784.34;4942379;28;20090;-81
2023/04/17 11:01:47;;;;;;;7.97;5.80;;;;;;;14.55;53.10;97774.56;4970269;28;20219;-83
2023/04/17 11:04:22;;;;;;;8.57;6.00;;;;;;;14.73;52.10;97784.59;4954603;28;20238;-82
2023/04/17 11:06:48;;;;;;;8.77;6.47;;;;;;;14.49;52.70;97783.41;4953888;28;20645;-84
2023/04/17 11:09:13;;;;;;;9.88;6.88;;;;;;;14.37;52.22;97768.69;4953510;28;20186;-84
2023/04/17 11:11:41;;;;;;;9.10;6.43;;;;;;;14.61;53.29;97782.19;4935523;28;20202;-83
2023/04/17 11:14:09;;;;;;;8.57;6.50;;;;;;;14.65;53.02;97781.69;4952842;28;20249;-83
2023/04/17 11:16:37;;;;;;;9.48;6.95;;;;;;;14.67;53.08;97776.97;4937762;28;20183;-83
2023/04/17 11:19:03;;;;;;;8.57;6.53;;;;;;;14.43;53.37;97775.53;4966840;28;20188;-82